Time;durP1;ratioP1;P1;durP2;ratioP2;P2;SDS_P1;SDS_P2;PMS_P1;PMS_P2;Temp;Humidity;BMP_temperature;BMP_pressure;BME280_temperature;BME280_humidity;BME280_pressure;Samples;Min_cycle;Max_cycle;Signal;HPM_P1;HPM_P2
2023/04/02 00:01:44;;;;;;;;;;;14.90;54.70;;;;;;5089639;28;19924;-69
2023/04/02 00:04:13;;;;;;;;;;;14.90;54.70;;;;;;5088248;28;20363;-69
2023/04/02 00:06:43;;;;;;;;;;;14.90;54.60;;;;;;5089384;28;19928;-69
2023/04/02 00:11:53;;;;;;;;;;;14.90;54.60;;;;;;5110137;27;19919;-69
2023/04/02 00:14:23;;;;;;;;;;;14.90;54.60;;;;;;5109014;28;20019;-69
2023/04/02 00:16:50;;;;;;;;;;;14.90;54.50;;;;;;5109074;28;20412;-68
2023/04/02 00:19:18;;;;;;;;;;;14.90;54.50;;;;;;5109175;28;19920;-69
2023/04/02 00:21:44;;;;;;;;;;;14.90;54.50;;;;;;5109079;28;19920;-69
2023/04/02 00:24:13;;;;;;;;;;;14.90;54.40;;;;;;5108807;28;19927;-69
2023/04/02 00:26:43;;;;;;;;;;;14.90;54.40;;;;;;5108548;28;19920;-69
2023/04/02 00:29:10;;;;;;;;;;;14.80;54.40;;;;;;5108979;28;19920;-69
2023/04/02 00:31:37;;;;;;;;;;;14.80;54.30;;;;;;5109751;28;20374;-69
2023/04/02 00:34:03;;;;;;;;;;;14.80;54.30;;;;;;5108848;28;20382;-69
2023/04/02 00:36:33;;;;;;;;;;;14.80;54.30;;;;;;5108442;28;19920;-69
2023/04/02 00:38:58;;;;;;;;;;;14.80;54.20;;;;;;5109716;28;19920;-69
2023/04/02 00:41:28;;;;;;;;;;;14.80;54.20;;;;;;5109641;28;19923;-69
2023/04/02 00:43:56;;;;;;;;;;;14.80;54.20;;;;;;5108318;28;19924;-69
2023/04/02 00:46:26;;;;;;;;;;;14.80;54.20;;;;;;5108551;28;20283;-69
2023/04/02 00:48:56;;;;;;;;;;;14.80;54.20;;;;;;5108572;28;19927;-69
2023/04/02 00:51:26;;;;;;;;;;;14.80;54.20;;;;;;5108198;28;19924;-69
2023/04/02 00:53:53;;;;;;;;;;;14.80;54.20;;;;;;5109373;28;19920;-69
2023/04/02 00:56:24;;;;;;;;;;;14.80;54.10;;;;;;5108180;28;19961;-69
2023/04/02 00:58:51;;;;;;;;;;;14.70;54.10;;;;;;5108403;28;20015;-69
2023/04/02 01:01:18;;;;;;;;;;;14.70;54.10;;;;;;5108335;28;19920;-69
2023/04/02 01:04:00;;;;;;;;;;;14.70;54.10;;;;;;5108013;28;20422;-69
2023/04/02 01:06:29;;;;;;;;;;;14.70;54.00;;;;;;5109219;28;19920;-69
2023/04/02 01:11:54;;;;;;;;;;;14.70;53.90;;;;;;5110271;27;19919;-69
2023/04/02 01:14:33;;;;;;;;;;;14.70;53.80;;;;;;5108778;28;20105;-69
2023/04/02 01:17:02;;;;;;;;;;;14.70;53.80;;;;;;5108904;28;19920;-69
2023/04/02 01:19:42;;;;;;;;;;;14.70;53.80;;;;;;5109173;28;20003;-69
2023/04/02 01:24:58;;;;;;;;;;;14.60;53.50;;;;;;5110322;27;19912;-69
2023/04/02 01:27:27;;;;;;;;;;;14.70;53.50;;;;;;5109216;28;20290;-69
2023/04/02 01:29:55;;;;;;;;;;;14.60;53.40;;;;;;5109283;28;19920;-69
2023/04/02 01:32:22;;;;;;;;;;;14.60;53.40;;;;;;5108833;28;19973;-69
2023/04/02 01:34:48;;;;;;;;;;;14.60;53.30;;;;;;5108745;28;19920;-69
2023/04/02 01:40:16;;;;;;;;;;;14.60;53.30;;;;;;5089911;28;19918;-69
2023/04/02 01:42:50;;;;;;;;;;;14.60;53.30;;;;;;5088555;28;19925;-69
2023/04/02 01:45:18;;;;;;;;;;;14.50;53.30;;;;;;5088476;28;19968;-69
2023/04/02 01:47:44;;;;;;;;;;;14.60;53.40;;;;;;5088813;28;19920;-69
2023/04/02 01:50:30;;;;;;;;;;;14.60;53.30;;;;;;5088430;28;20296;-69
2023/04/02 01:52:57;;;;;;;;;;;14.50;53.10;;;;;;5088825;28;20318;-69
2023/04/02 01:55:42;;;;;;;;;;;14.50;53.00;;;;;;5088332;28;20007;-69
2023/04/02 01:58:10;;;;;;;;;;;14.50;53.00;;;;;;5088317;28;20418;-69
2023/04/02 02:00:40;;;;;;;;;;;14.50;53.00;;;;;;5088577;28;20015;-69
2023/04/02 02:03:07;;;;;;;;;;;14.50;53.00;;;;;;5089511;28;19920;-69
2023/04/02 02:05:32;;;;;;;;;;;14.50;53.00;;;;;;5105422;28;19973;-69
2023/04/02 02:08:00;;;;;;;;;;;14.50;53.00;;;;;;5088146;28;19963;-69
2023/04/02 02:10:27;;;;;;;;;;;14.50;53.00;;;;;;5088028;28;20398;-69
2023/04/02 02:12:53;;;;;;;;;;;14.40;52.80;;;;;;5089807;28;19940;-69
2023/04/02 02:15:19;;;;;;;;;;;14.50;52.80;;;;;;5089210;28;20306;-69
2023/04/02 02:17:46;;;;;;;;;;;14.40;52.50;;;;;;5088099;28;19994;-69
2023/04/02 02:20:12;;;;;;;;;;;14.40;52.40;;;;;;5087833;28;19920;-70
2023/04/02 02:22:42;;;;;;;;;;;14.50;52.60;;;;;;5089190;28;19966;-69
2023/04/02 02:25:17;;;;;;;;;;;14.60;52.30;;;;;;5087768;28;19928;-69
2023/04/02 02:27:47;;;;;;;;;;;14.80;52.00;;;;;;5087777;28;19921;-69
2023/04/02 02:30:18;;;;;;;;;;;15.00;51.50;;;;;;5088019;28;19920;-69
2023/04/02 02:33:05;;;;;;;;;;;15.20;51.00;;;;;;5104624;28;19920;-69
2023/04/02 02:38:31;;;;;;;;;;;15.40;50.10;;;;;;5089984;28;19912;-69
2023/04/02 02:40:58;;;;;;;;;;;15.40;49.70;;;;;;5088577;28;20003;-69
2023/04/02 02:43:25;;;;;;;;;;;15.50;49.80;;;;;;5088567;28;19928;-70
2023/04/02 02:45:52;;;;;;;;;;;15.50;49.60;;;;;;5088826;28;19920;-69
2023/04/02 02:48:20;;;;;;;;;;;15.50;49.40;;;;;;5088801;28;20268;-70
2023/04/02 02:50:45;;;;;;;;;;;15.50;49.30;;;;;;5088377;28;19966;-69
2023/04/02 02:53:15;;;;;;;;;;;15.50;49.10;;;;;;5088969;28;19920;-69
2023/04/02 02:55:40;;;;;;;;;;;15.50;49.10;;;;;;5088166;28;19922;-68
2023/04/02 02:58:08;;;;;;;;;;;15.50;49.10;;;;;;5088535;28;20019;-69
2023/04/02 03:00:34;;;;;;;;;;;15.60;48.90;;;;;;5088282;28;19924;-69
2023/04/02 03:03:03;;;;;;;;;;;15.60;48.80;;;;;;5088676;28;19921;-69
2023/04/02 03:05:28;;;;;;;;;;;15.50;48.80;;;;;;5088241;28;20379;-69
2023/04/02 03:07:55;;;;;;;;;;;15.50;48.70;;;;;;5089383;28;19920;-69
2023/04/02 03:10:28;;;;;;;;;;;15.50;48.60;;;;;;5088298;28;19920;-69
2023/04/02 03:13:00;;;;;;;;;;;15.60;48.70;;;;;;5087370;28;19924;-70
2023/04/02 03:15:45;;;;;;;;;;;15.50;48.70;;;;;;5088273;28;20073;-69
2023/04/02 03:20:54;;;;;;;;;;;15.40;48.40;;;;;;5089891;28;20375;-69
2023/04/02 03:23:23;;;;;;;;;;;15.50;48.40;;;;;;5088502;28;19920;-69
2023/04/02 03:28:31;;;;;;;;;;;15.50;48.40;;;;;;5110235;27;19912;-69
2023/04/02 03:31:03;;;;;;;;;;;15.50;48.30;;;;;;5108931;28;19920;-69
2023/04/02 03:38:58;;;;;;;;;;;15.50;48.30;;;;;;5130798;27;20006;-69
2023/04/02 03:41:31;;;;;;;;;;;15.50;48.20;;;;;;5129417;28;19920;-70
2023/04/02 03:43:59;;;;;;;;;;;15.50;48.00;;;;;;5130626;27;20332;-70
2023/04/02 03:46:34;;;;;;;;;;;15.50;48.00;;;;;;5129374;28;20405;-70
2023/04/02 03:49:02;;;;;;;;;;;15.50;48.00;;;;;;5130762;27;19984;-69
2023/04/02 03:51:47;;;;;;;;;;;15.50;47.90;;;;;;5129351;28;19923;-69
2023/04/02 03:54:14;;;;;;;;;;;15.50;47.90;;;;;;5128959;28;19920;-68
2023/04/02 03:56:40;;;;;;;;;;;15.50;47.80;;;;;;5129097;28;19927;-69
2023/04/02 03:59:25;;;;;;;;;;;15.50;47.80;;;;;;5129101;28;19919;-69
2023/04/02 04:01:55;;;;;;;;;;;15.40;47.70;;;;;;5129211;28;20333;-70
2023/04/02 04:04:22;;;;;;;;;;;15.40;47.80;;;;;;5129327;28;20006;-69
2023/04/02 04:06:49;;;;;;;;;;;15.40;47.70;;;;;;5128998;28;19956;-69
2023/04/02 04:12:00;;;;;;;;;;;15.40;47.60;;;;;;5110302;27;20272;-70
2023/04/02 04:14:29;;;;;;;;;;;15.40;47.60;;;;;;5109212;28;19924;-69
2023/04/02 04:17:00;;;;;;;;;;;15.40;47.50;;;;;;5143320;27;19969;-69
2023/04/02 04:19:32;;;;;;;;;;;15.40;47.50;;;;;;5109360;28;19924;-71
2023/04/02 04:22:17;;;;;;;;;;;15.40;47.30;;;;;;5110110;28;20345;-69
2023/04/02 04:24:44;;;;;;;;;;;15.40;47.40;;;;;;5108560;28;19927;-69
2023/04/02 04:27:32;;;;;;;;;;;15.30;47.00;;;;;;5108745;28;19927;-70
2023/04/02 04:30:04;;;;;;;;;;;15.30;47.10;;;;;;5108511;28;20014;-69
2023/04/02 04:32:33;;;;;;;;;;;15.30;46.90;;;;;;5108894;28;20363;-70
2023/04/02 04:35:06;;;;;;;;;;;15.30;46.90;;;;;;5109878;28;19927;-69
2023/04/02 04:37:35;;;;;;;;;;;15.30;47.00;;;;;;5108827;28;19924;-69
2023/04/02 04:40:06;;;;;;;;;;;15.30;46.90;;;;;;5108696;28;19943;-70
2023/04/02 04:42:33;;;;;;;;;;;15.30;46.90;;;;;;5109722;28;19920;-70
2023/04/02 04:45:02;;;;;;;;;;;15.30;46.80;;;;;;5109544;28;20295;-70
2023/04/02 04:47:32;;;;;;;;;;;15.30;46.60;;;;;;5109790;28;20327;-70
2023/04/02 04:50:18;;;;;;;;;;;15.30;46.40;;;;;;5108415;28;20391;-69
2023/04/02 04:52:43;;;;;;;;;;;15.20;46.40;;;;;;5108288;28;20022;-70
2023/04/02 04:58:15;;;;;;;;;;;15.20;46.40;;;;;;5110264;27;19912;-70
2023/04/02 05:00:47;;;;;;;;;;;15.20;46.40;;;;;;5109186;28;20025;-70
2023/04/02 05:05:52;;;;;;;;;;;15.20;46.30;;;;;;5110208;27;19912;-70
2023/04/02 05:08:20;;;;;;;;;;;15.10;46.20;;;;;;5109242;28;19927;-70
2023/04/02 05:10:49;;;;;;;;;;;15.20;46.30;;;;;;5109113;28;19920;-69
2023/04/02 05:13:21;;;;;;;;;;;15.20;46.10;;;;;;5108931;28;19931;-69
2023/04/02 05:16:02;;;;;;;;;;;15.20;46.20;;;;;;5110055;28;19920;-69
2023/04/02 05:18:33;;;;;;;;;;;15.10;46.10;;;;;;5108804;28;19920;-70
2023/04/02 05:21:18;;;;;;;;;;;15.10;45.80;;;;;;5108988;28;19920;-70
2023/04/02 05:26:29;;;;;;;;;;;15.10;46.00;;;;;;5110261;27;19913;-70
2023/04/02 05:28:59;;;;;;;;;;;15.10;45.90;;;;;;5108906;28;19965;-69
2023/04/02 05:31:28;;;;;;;;;;;15.10;45.90;;;;;;5109162;28;19928;-70
2023/04/02 05:33:54;;;;;;;;;;;15.10;45.80;;;;;;5108875;28;19919;-69
2023/04/02 05:36:28;;;;;;;;;;;15.10;45.70;;;;;;5109034;28;19920;-70
2023/04/02 05:38:55;;;;;;;;;;;15.10;45.80;;;;;;5108793;28;19927;-70
2023/04/02 05:41:25;;;;;;;;;;;15.10;45.80;;;;;;5143053;27;19920;-69
2023/04/02 05:43:57;;;;;;;;;;;15.10;45.70;;;;;;5108694;28;20004;-70
2023/04/02 05:46:26;;;;;;;;;;;15.10;45.60;;;;;;5108661;28;19928;-70
2023/04/02 05:48:54;;;;;;;;;;;15.20;45.30;;;;;;5108589;28;19920;-71
2023/04/02 05:51:23;;;;;;;;;;;15.10;45.40;;;;;;5108818;28;19974;-70
2023/04/02 05:53:52;;;;;;;;;;;15.10;45.20;;;;;;5108529;28;19947;-69
2023/04/02 05:56:24;;;;;;;;;;;15.10;45.40;;;;;;5108650;28;19920;-70
2023/04/02 05:59:09;;;;;;;;;;;15.00;45.30;;;;;;5109626;28;19972;-69
2023/04/02 06:01:41;;;;;;;;;;;15.10;45.30;;;;;;5108093;28;19920;-70
2023/04/02 06:04:15;;;;;;;;;;;15.10;45.10;;;;;;5108262;28;19931;-69
2023/04/02 06:06:44;;;;;;;;;;;15.10;45.10;;;;;;5109414;28;19920;-69
2023/04/02 06:09:14;;;;;;;;;;;15.00;45.10;;;;;;5109508;28;19927;-69
2023/04/02 06:11:44;;;;;;;;;;;15.00;45.80;;;;;;5109599;28;19924;-69
2023/04/02 06:14:11;;;;;;;;;;;15.00;44.90;;;;;;5109486;28;19924;-69
2023/04/02 06:16:37;;;;;;;;;;;15.00;44.80;;;;;;5108397;28;20365;-69
2023/04/02 06:19:09;;;;;;;;;;;15.00;45.00;;;;;;5108348;28;19920;-70
2023/04/02 06:21:41;;;;;;;;;;;15.00;44.90;;;;;;5107872;28;20414;-70
2023/04/02 06:24:10;;;;;;;;;;;15.00;44.80;;;;;;5107834;28;20327;-70
2023/04/02 06:26:38;;;;;;;;;;;15.00;44.70;;;;;;5109304;28;19931;-69
2023/04/02 06:29:07;;;;;;;;;;;15.00;44.80;;;;;;5107816;28;19927;-69
2023/04/02 06:31:39;;;;;;;;;;;15.00;44.70;;;;;;5107777;28;19924;-70
2023/04/02 06:34:06;;;;;;;;;;;14.90;44.70;;;;;;5107599;28;19920;-69
2023/04/02 06:36:32;;;;;;;;;;;15.00;44.80;;;;;;5101155;28;20390;-69
2023/04/02 06:39:00;;;;;;;;;;;15.00;44.80;;;;;;5093995;28;19920;-69
2023/04/02 06:41:25;;;;;;;;;;;15.00;44.60;;;;;;5094371;28;19927;-70
2023/04/02 06:43:54;;;;;;;;;;;14.90;44.60;;;;;;5093873;28;19920;-69
2023/04/02 06:46:31;;;;;;;;;;;15.00;44.70;;;;;;5093958;28;19931;-69
2023/04/02 06:49:00;;;;;;;;;;;15.00;44.60;;;;;;5093799;28;19924;-70
2023/04/02 06:51:27;;;;;;;;;;;15.00;44.40;;;;;;5095201;28;19920;-69
2023/04/02 06:53:54;;;;;;;;;;;15.00;44.40;;;;;;5094110;28;19951;-69
2023/04/02 06:59:15;;;;;;;;;;;15.00;44.30;;;;;;5110135;27;20298;-69
2023/04/02 07:01:43;;;;;;;;;;;15.00;44.40;;;;;;5108974;28;20375;-69
2023/04/02 07:04:09;;;;;;;;;;;14.90;44.20;;;;;;5109126;28;19920;-69
2023/04/02 07:06:35;;;;;;;;;;;14.90;44.10;;;;;;5109211;28;19920;-69
2023/04/02 07:09:00;;;;;;;;;;;15.00;44.20;;;;;;5108784;28;19950;-68
2023/04/02 07:11:26;;;;;;;;;;;14.90;44.10;;;;;;5108807;28;19930;-69
2023/04/02 07:13:51;;;;;;;;;;;14.90;44.10;;;;;;5108935;28;19920;-69
2023/04/02 07:16:19;;;;;;;;;;;14.90;44.00;;;;;;5108295;28;20398;-69
2023/04/02 07:18:45;;;;;;;;;;;14.90;44.10;;;;;;5108457;28;19935;-70
2023/04/02 07:21:10;;;;;;;;;;;14.90;44.20;;;;;;5110220;28;19920;-69
2023/04/02 07:23:36;;;;;;;;;;;14.90;44.20;;;;;;5108861;28;20272;-69
2023/04/02 07:26:02;;;;;;;;;;;14.90;44.20;;;;;;5108478;28;19920;-69
2023/04/02 07:28:28;;;;;;;;;;;14.90;44.00;;;;;;5108779;28;19927;-69
2023/04/02 07:30:54;;;;;;;;;;;14.90;44.00;;;;;;5108608;28;20321;-69
2023/04/02 07:33:21;;;;;;;;;;;14.90;44.00;;;;;;5108728;28;19927;-69
2023/04/02 07:35:47;;;;;;;;;;;14.90;44.20;;;;;;5108559;28;20002;-69
2023/04/02 07:38:13;;;;;;;;;;;14.90;44.00;;;;;;5108410;28;19939;-69
2023/04/02 07:40:38;;;;;;;;;;;14.90;44.10;;;;;;5108525;28;19945;-69
2023/04/02 07:43:04;;;;;;;;;;;14.90;43.90;;;;;;5108220;28;19920;-68
2023/04/02 07:45:30;;;;;;;;;;;14.90;43.80;;;;;;5108361;28;20287;-69
2023/04/02 07:47:56;;;;;;;;;;;14.90;43.80;;;;;;5109598;28;19920;-69
2023/04/02 07:50:22;;;;;;;;;;;14.90;44.00;;;;;;5108018;28;19966;-69
2023/04/02 07:52:47;;;;;;;;;;;14.90;44.00;;;;;;5109294;28;20307;-69
2023/04/02 07:55:14;;;;;;;;;;;14.90;43.80;;;;;;5108132;28;19924;-68
2023/04/02 07:57:47;;;;;;;;;;;14.90;43.90;;;;;;5116278;28;19923;-68
2023/04/02 08:00:13;;;;;;;;;;;14.90;43.80;;;;;;5111144;28;19920;-68
2023/04/02 08:02:39;;;;;;;;;;;14.90;43.70;;;;;;5111424;28;20359;-68
2023/04/02 08:05:04;;;;;;;;;;;14.90;43.70;;;;;;5129582;28;19919;-68
2023/04/02 08:07:30;;;;;;;;;;;14.90;43.60;;;;;;5129561;28;19986;-68
2023/04/02 08:09:55;;;;;;;;;;;14.90;43.70;;;;;;5119331;28;19924;-68
2023/04/02 08:12:21;;;;;;;;;;;14.90;43.60;;;;;;5115704;28;19973;-69
2023/04/02 08:14:46;;;;;;;;;;;14.90;43.70;;;;;;5097341;28;19920;-68
2023/04/02 08:17:12;;;;;;;;;;;14.90;43.70;;;;;;5097444;28;19935;-69
2023/04/02 08:19:38;;;;;;;;;;;14.80;43.60;;;;;;5097328;28;19920;-69
2023/04/02 08:22:03;;;;;;;;;;;14.90;43.60;;;;;;5097407;28;19920;-69
2023/04/02 08:24:29;;;;;;;;;;;14.90;43.60;;;;;;5115469;28;20339;-69
2023/04/02 08:26:55;;;;;;;;;;;14.90;43.60;;;;;;5097407;28;19926;-69
2023/04/02 08:29:20;;;;;;;;;;;14.90;43.40;;;;;;5097410;28;19920;-68
2023/04/02 08:31:46;;;;;;;;;;;14.80;43.40;;;;;;5096852;28;19930;-69
2023/04/02 08:34:12;;;;;;;;;;;14.80;43.40;;;;;;5097263;28;19972;-69
2023/04/02 08:36:39;;;;;;;;;;;14.80;43.30;;;;;;5096921;28;19939;-69
2023/04/02 08:39:05;;;;;;;;;;;14.80;43.40;;;;;;5096842;28;20367;-68
2023/04/02 08:41:35;;;;;;;;;;;14.70;43.50;;;;;;5097176;28;19919;-69
2023/04/02 08:44:10;;;;;;;;;;;14.80;43.40;;;;;;5115024;28;20363;-69
2023/04/02 08:46:41;;;;;;;;;;;14.70;43.50;;;;;;5097015;28;19978;-69
2023/04/02 08:49:12;;;;;;;;;;;14.70;43.50;;;;;;5096666;28;19920;-69
2023/04/02 08:51:38;;;;;;;;;;;14.60;43.50;;;;;;5096848;28;19964;-69
2023/04/02 08:54:07;;;;;;;;;;;14.50;43.50;;;;;;5114858;28;19920;-68
2023/04/02 08:56:39;;;;;;;;;;;14.50;43.70;;;;;;5096909;28;20057;-69
2023/04/02 08:59:12;;;;;;;;;;;14.50;43.80;;;;;;5096178;28;19924;-68
2023/04/02 09:01:46;;;;;;;;;;;14.40;43.80;;;;;;5096335;28;20394;-68
2023/04/02 09:04:14;;;;;;;;;;;14.40;43.80;;;;;;5096658;28;19926;-69
2023/04/02 09:06:40;;;;;;;;;;;14.40;43.90;;;;;;5096335;28;20394;-68
2023/04/02 09:09:07;;;;;;;;;;;14.40;44.00;;;;;;5114523;28;20415;-69
2023/04/02 09:11:36;;;;;;;;;;;14.40;44.20;;;;;;5114415;28;19927;-69
2023/04/02 09:14:05;;;;;;;;;;;14.30;44.00;;;;;;5096539;28;19926;-68
2023/04/02 09:16:42;;;;;;;;;;;14.30;44.10;;;;;;5096490;28;20283;-69
2023/04/02 09:19:18;;;;;;;;;;;14.30;44.10;;;;;;5096123;28;19924;-69
2023/04/02 09:21:51;;;;;;;;;;;14.20;44.10;;;;;;5095359;28;19919;-69
2023/04/02 09:24:17;;;;;;;;;;;14.20;44.20;;;;;;5095981;28;19927;-69
2023/04/02 09:26:42;;;;;;;;;;;14.20;44.30;;;;;;5095909;28;19920;-69
2023/04/02 09:31:56;;;;;;;;;;;14.10;44.40;;;;;;5110246;27;19918;-69
2023/04/02 09:34:28;;;;;;;;;;;14.00;44.50;;;;;;5109272;28;19969;-69
2023/04/02 09:36:54;;;;;;;;;;;14.10;44.60;;;;;;5110111;28;20744;-69
2023/04/02 09:39:22;;;;;;;;;;;14.00;44.60;;;;;;5109185;28;19920;-69
2023/04/02 09:41:48;;;;;;;;;;;14.00;44.80;;;;;;5108945;28;19946;-69
2023/04/02 09:44:22;;;;;;;;;;;14.00;44.90;;;;;;5108728;28;19924;-69
2023/04/02 09:46:49;;;;;;;;;;;13.90;44.90;;;;;;5109000;28;19962;-70
2023/04/02 09:49:16;;;;;;;;;;;13.90;45.00;;;;;;5108842;28;19928;-70
2023/04/02 09:51:42;;;;;;;;;;;13.90;45.10;;;;;;5108563;28;19928;-69
2023/04/02 09:54:12;;;;;;;;;;;13.90;45.90;;;;;;5109825;28;20439;-69
2023/04/02 09:56:39;;;;;;;;;;;13.90;45.20;;;;;;5108600;28;19972;-68
2023/04/02 10:01:47;;;;;;;;;;;13.90;45.20;;;;;;5110317;27;20363;-69
2023/04/02 10:04:33;;;;;;;;;;;13.90;45.10;;;;;;5108990;28;20564;-69
2023/04/02 10:06:58;;;;;;;;;;;14.00;45.10;;;;;;5109059;28;19920;-68
2023/04/02 10:09:28;;;;;;;;;;;14.00;45.50;;;;;;5108832;28;20401;-69
2023/04/02 10:11:54;;;;;;;;;;;14.00;45.10;;;;;;5108779;28;19927;-68
2023/04/02 10:14:24;;;;;;;;;;;14.00;45.10;;;;;;5109124;28;19919;-70
2023/04/02 10:16:52;;;;;;;;;;;14.10;45.10;;;;;;5108899;28;20015;-69
2023/04/02 10:22:11;;;;;;;;;;;14.10;44.90;;;;;;5089869;28;19912;-70
2023/04/02 10:24:37;;;;;;;;;;;14.20;44.80;;;;;;5088918;28;19921;-69
2023/04/02 10:27:08;;;;;;;;;;;14.20;44.70;;;;;;5088438;28;20438;-70
2023/04/02 10:32:16;;;;;;;;;;;14.20;44.60;;;;;;5110187;27;19940;-70
2023/04/02 10:34:50;;;;;;;;;;;14.20;44.40;;;;;;5109310;28;19920;-70
2023/04/02 10:37:36;;;;;;;;;;;14.30;44.60;;;;;;5108887;28;19934;-70
2023/04/02 10:40:08;;;;;;;;;;;14.30;44.50;;;;;;5108926;28;19920;-70
2023/04/02 10:42:54;;;;;;;;;;;14.30;44.60;;;;;;5109325;28;19973;-70
2023/04/02 10:45:30;;;;;;;;;;;14.30;44.50;;;;;;5108576;28;19927;-70
2023/04/02 10:53:27;;;;;;;;;;;14.30;44.70;;;;;;5110282;27;19912;-70
2023/04/02 10:55:55;;;;;;;;;;;14.30;44.70;;;;;;5109289;28;20344;-70
2023/04/02 10:58:23;;;;;;;;;;;14.30;44.70;;;;;;5110152;28;20335;-69
2023/04/02 11:00:50;;;;;;;;;;;14.40;44.80;;;;;;5109100;28;19927;-70
2023/04/02 11:03:22;;;;;;;;;;;14.30;44.80;;;;;;5108803;28;19920;-70
2023/04/02 11:05:49;;;;;;;;;;;14.30;44.80;;;;;;5109129;28;19919;-70
2023/04/02 11:11:00;;;;;;;;;;;14.30;44.80;;;;;;5089877;28;19912;-70
2023/04/02 11:13:34;;;;;;;;;;;14.30;44.80;;;;;;5088481;28;19950;-69
2023/04/02 11:16:00;;;;;;;;;;;14.30;44.90;;;;;;5088145;28;20024;-69
2023/04/02 11:18:28;;;;;;;;;;;14.30;44.90;;;;;;5088629;28;20419;-70
2023/04/02 11:20:56;;;;;;;;;;;14.30;45.00;;;;;;5088369;28;19921;-70
2023/04/02 11:23:25;;;;;;;;;;;14.30;45.00;;;;;;5088610;28;19921;-70
2023/04/02 11:25:51;;;;;;;;;;;14.20;45.10;;;;;;5088406;28;19955;-70
2023/04/02 11:28:26;;;;;;;;;;;14.30;45.10;;;;;;5088260;28;19952;-70
2023/04/02 11:30:52;;;;;;;;;;;14.20;45.00;;;;;;5088275;28;19932;-70
2023/04/02 11:33:38;;;;;;;;;;;14.20;45.20;;;;;;5088445;28;19924;-70
2023/04/02 11:36:23;;;;;;;;;;;14.30;45.30;;;;;;5088435;28;19927;-70
2023/04/02 11:38:49;;;;;;;;;;;14.20;45.30;;;;;;5087881;28;19920;-70
2023/04/02 11:41:35;;;;;;;;;;;14.10;45.30;;;;;;5088060;28;19920;-70
2023/04/02 11:44:00;;;;;;;;;;;14.20;45.50;;;;;;5088108;28;19924;-71
2023/04/02 11:49:30;;;;;;;;;;;14.10;45.60;;;;;;5110188;27;20367;-70
2023/04/02 11:51:55;;;;;;;;;;;14.10;45.50;;;;;;5109141;28;20011;-71
2023/04/02 11:54:27;;;;;;;;;;;14.10;45.60;;;;;;5108843;28;20557;-70
2023/04/02 11:56:59;;;;;;;;;;;14.10;45.60;;;;;;5108866;28;19920;-70
2023/04/02 11:59:35;;;;;;;;;;;14.10;45.70;;;;;;5109020;28;19926;-70
2023/04/02 12:02:21;;;;;;;;;;;14.10;45.70;;;;;;5110073;28;20173;-69
2023/04/02 12:04:56;;;;;;;;;;;14.10;45.80;;;;;;5108392;28;19967;-70
2023/04/02 12:10:18;;;;;;;;;;;14.10;45.80;;;;;;5110056;27;19918;-71
2023/04/02 12:12:43;;;;;;;;;;;14.10;45.80;;;;;;5109286;28;19934;-71
2023/04/02 12:15:29;;;;;;;;;;;14.10;45.90;;;;;;5109250;28;20349;-70
2023/04/02 12:18:03;;;;;;;;;;;14.00;45.80;;;;;;5108956;28;19927;-71
2023/04/02 12:20:29;;;;;;;;;;;14.10;45.90;;;;;;5108671;28;20029;-71
2023/04/02 12:22:55;;;;;;;;;;;14.00;45.80;;;;;;5108724;28;19923;-71
2023/04/02 12:25:39;;;;;;;;;;;14.10;45.90;;;;;;5108710;28;19931;-71
2023/04/02 12:30:45;;;;;;;;;;;14.00;45.90;;;;;;5110299;27;20264;-71
2023/04/02 12:33:32;;;;;;;;;;;14.10;46.00;;;;;;5108875;28;19920;-72
2023/04/02 12:35:59;;;;;;;;;;;14.00;46.00;;;;;;5109044;28;20371;-71
2023/04/02 12:38:26;;;;;;;;;;;14.00;46.00;;;;;;5108892;28;19973;-71
2023/04/02 12:43:33;;;;;;;;;;;14.00;46.00;;;;;;5110257;27;19913;-71
2023/04/02 12:46:01;;;;;;;;;;;14.00;46.10;;;;;;5108892;28;19931;-70
2023/04/02 12:48:27;;;;;;;;;;;14.00;46.00;;;;;;5109550;28;19920;-72
2023/04/02 12:50:53;;;;;;;;;;;14.00;46.10;;;;;;5108904;28;19920;-71
2023/04/02 12:53:21;;;;;;;;;;;14.00;46.10;;;;;;5110408;28;20272;-70
2023/04/02 12:55:48;;;;;;;;;;;14.00;46.10;;;;;;5110001;28;19951;-70
2023/04/02 12:58:33;;;;;;;;;;;14.10;46.10;;;;;;5108747;28;19919;-70
2023/04/02 13:01:17;;;;;;;;;;;14.10;46.20;;;;;;5108496;28;20010;-71
2023/04/02 13:03:43;;;;;;;;;;;14.10;46.10;;;;;;5108868;28;20363;-71
2023/04/02 13:06:19;;;;;;;;;;;14.10;46.10;;;;;;5108846;28;20355;-71
2023/04/02 13:08:45;;;;;;;;;;;14.10;46.10;;;;;;5106889;28;19924;-71
2023/04/02 13:11:10;;;;;;;;;;;14.00;46.10;;;;;;5122089;28;20409;-71
2023/04/02 13:13:37;;;;;;;;;;;14.10;46.20;;;;;;5089035;28;20394;-72
2023/04/02 13:16:20;;;;;;;;;;;14.00;46.10;;;;;;5122433;28;19927;-71
2023/04/02 13:18:46;;;;;;;;;;;14.10;46.20;;;;;;5122400;28;19990;-72
2023/04/02 13:23:54;;;;;;;;;;;14.10;46.20;;;;;;5089902;28;20374;-72
2023/04/02 13:26:21;;;;;;;;;;;14.00;46.20;;;;;;5088563;28;20009;-71
2023/04/02 13:28:55;;;;;;;;;;;14.10;46.10;;;;;;5088932;28;19920;-72
2023/04/02 13:31:20;;;;;;;;;;;14.10;46.10;;;;;;5088420;28;19924;-72
2023/04/02 13:33:46;;;;;;;;;;;14.00;46.10;;;;;;5088354;28;19921;-72
2023/04/02 13:36:13;;;;;;;;;;;14.00;46.20;;;;;;5071794;28;20355;-72
2023/04/02 13:38:38;;;;;;;;;;;14.10;46.20;;;;;;5088291;28;19927;-72
2023/04/02 13:41:04;;;;;;;;;;;14.10;46.20;;;;;;5088617;28;20007;-72
2023/04/02 13:43:29;;;;;;;;;;;14.10;46.20;;;;;;5089286;28;20379;-72
2023/04/02 13:45:57;;;;;;;;;;;14.00;46.20;;;;;;5088277;28;20194;-72
2023/04/02 13:48:25;;;;;;;;;;;14.10;46.30;;;;;;5088451;28;19920;-72
2023/04/02 13:50:50;;;;;;;;;;;14.10;46.30;;;;;;5088115;28;19920;-72
2023/04/02 13:53:21;;;;;;;;;;;14.10;46.30;;;;;;5088055;28;19924;-73
2023/04/02 13:55:46;;;;;;;;;;;14.10;46.30;;;;;;5089284;28;19921;-71
2023/04/02 13:58:12;;;;;;;;;;;14.10;46.30;;;;;;5088392;28;19920;-72
2023/04/02 14:00:38;;;;;;;;;;;14.10;46.40;;;;;;5087988;28;20372;-72
2023/04/02 14:03:13;;;;;;;;;;;14.10;46.40;;;;;;5089080;28;19986;-72
2023/04/02 14:08:45;;;;;;;;;;;14.10;46.30;;;;;;5090109;28;20266;-72
2023/04/02 14:14:11;;;;;;;;;;;14.10;46.30;;;;;;5110214;27;19934;-71
2023/04/02 14:16:48;;;;;;;;;;;14.10;46.40;;;;;;5108754;28;19920;-73
2023/04/02 14:21:59;;;;;;;;;;;14.10;46.40;;;;;;5110333;27;19912;-72
2023/04/02 14:32:42;;;;;;;;;;;14.20;46.40;;;;;;5110327;27;19919;-72
2023/04/02 14:35:27;;;;;;;;;;;14.20;46.40;;;;;;5108864;28;20569;-71
2023/04/02 14:38:01;;;;;;;;;;;14.20;46.30;;;;;;5110189;28;20053;-71
2023/04/02 14:40:38;;;;;;;;;;;14.20;46.40;;;;;;5108843;28;19926;-72
2023/04/02 14:43:10;;;;;;;;;;;14.20;46.50;;;;;;5109121;28;20015;-72
2023/04/02 14:45:43;;;;;;;;;;;14.20;46.50;;;;;;5143041;27;19920;-72
2023/04/02 14:48:16;;;;;;;;;;;14.20;46.50;;;;;;5109287;28;19931;-71
2023/04/02 14:50:42;;;;;;;;;;;14.20;47.30;;;;;;5108561;28;19969;-72
2023/04/02 14:53:11;;;;;;;;;;;14.20;46.50;;;;;;5108631;28;19920;-72
2023/04/02 14:55:42;;;;;;;;;;;14.20;46.50;;;;;;5109821;28;19920;-72
2023/04/02 14:58:14;;;;;;;;;;;14.20;46.50;;;;;;5108482;28;19942;-71
2023/04/02 15:00:40;;;;;;;;;;;14.20;46.60;;;;;;5108702;28;20367;-72
2023/04/02 15:03:23;;;;;;;;;;;14.20;46.60;;;;;;5108444;28;19920;-72
2023/04/02 15:05:51;;;;;;;;;;;14.10;46.60;;;;;;5108622;28;19924;-72
2023/04/02 15:08:21;;;;;;;;;;;14.20;46.60;;;;;;5109682;28;20018;-74
2023/04/02 15:10:53;;;;;;;;;;;14.10;46.60;;;;;;5108055;28;19924;-71
2023/04/02 15:13:21;;;;;;;;;;;14.20;46.70;;;;;;5108055;28;20383;-71
2023/04/02 15:18:27;;;;;;;;;;;14.20;46.70;;;;;;5110309;27;19934;-71
2023/04/02 15:23:37;;;;;;;;;;;14.20;46.70;;;;;;5089981;28;20260;-70
2023/04/02 15:26:08;;;;;;;;;;;14.10;46.70;;;;;;5088873;28;20409;-72
2023/04/02 15:28:39;;;;;;;;;;;14.20;46.70;;;;;;5088888;28;20008;-72
2023/04/02 15:31:08;;;;;;;;;;;14.20;46.70;;;;;;5088770;28;19978;-72
2023/04/02 15:33:43;;;;;;;;;;;14.20;46.80;;;;;;5088494;28;19924;-72
2023/04/02 15:38:53;;;;;;;;;;;14.20;46.70;;;;;;5089967;28;19919;-72
2023/04/02 15:41:25;;;;;;;;;;;14.20;46.70;;;;;;5088558;28;20415;-72
2023/04/02 15:49:41;;;;;;;;;;;14.10;46.70;;;;;;5089999;28;19919;-71
2023/04/02 15:54:54;;;;;;;;;;;14.20;46.70;;;;;;5110242;27;19919;-72
2023/04/02 15:57:40;;;;;;;;;;;14.20;46.70;;;;;;5108922;28;20440;-71
2023/04/02 16:00:26;;;;;;;;;;;14.20;46.80;;;;;;5109098;28;19926;-72
2023/04/02 16:03:12;;;;;;;;;;;14.20;46.80;;;;;;5109066;28;19931;-74
2023/04/02 16:05:43;;;;;;;;;;;14.20;46.90;;;;;;5108643;28;19920;-72
2023/04/02 16:10:50;;;;;;;;;;;14.20;46.80;;;;;;5110294;27;19918;-72
2023/04/02 16:13:17;;;;;;;;;;;14.20;46.70;;;;;;5108967;28;19920;-70
2023/04/02 16:15:50;;;;;;;;;;;14.20;46.80;;;;;;5110186;28;19927;-71
2023/04/02 16:18:22;;;;;;;;;;;14.10;46.70;;;;;;5108834;28;20375;-72
2023/04/02 16:20:49;;;;;;;;;;;14.20;46.80;;;;;;5109171;28;20291;-72